sensor_id;sensor_type;location;lat;lon;timestamp;P1;durP1;ratioP1;P2;durP2;ratioP2
545;SDS011;259;53.304;9.816;2023-09-08T00:01:00;6.50;;;6.00;;
545;SDS011;259;53.304;9.816;2023-09-08T00:03:26;6.40;;;6.00;;
545;SDS011;259;53.304;9.816;2023-09-08T00:09:27;6.30;;;5.90;;
545;SDS011;259;53.304;9.816;2023-09-08T00:11:52;6.20;;;5.80;;
545;SDS011;259;53.304;9.816;2023-09-08T00:14:19;6.77;;;6.30;;
545;SDS011;259;53.304;9.816;2023-09-08T00:16:45;6.23;;;5.83;;
545;SDS011;259;53.304;9.816;2023-09-08T00:19:11;6.87;;;6.47;;
545;SDS011;259;53.304;9.816;2023-09-08T00:21:37;6.90;;;6.40;;
545;SDS011;259;53.304;9.816;2023-09-08T00:24:03;6.80;;;6.30;;
545;SDS011;259;53.304;9.816;2023-09-08T00:26:30;6.70;;;6.10;;
545;SDS011;259;53.304;9.816;2023-09-08T00:28:56;6.40;;;6.00;;
545;SDS011;259;53.304;9.816;2023-09-08T00:31:22;6.87;;;6.37;;
545;SDS011;259;53.304;9.816;2023-09-08T00:33:48;6.77;;;6.27;;
545;SDS011;259;53.304;9.816;2023-09-08T00:36:15;6.63;;;6.13;;
545;SDS011;259;53.304;9.816;2023-09-08T00:38:40;7.37;;;6.87;;
545;SDS011;259;53.304;9.816;2023-09-08T00:41:06;6.73;;;6.23;;
545;SDS011;259;53.304;9.816;2023-09-08T00:43:32;6.97;;;6.47;;
545;SDS011;259;53.304;9.816;2023-09-08T00:45:59;6.73;;;6.23;;
545;SDS011;259;53.304;9.816;2023-09-08T00:48:27;6.83;;;6.43;;
545;SDS011;259;53.304;9.816;2023-09-08T00:50:53;6.40;;;6.00;;
545;SDS011;259;53.304;9.816;2023-09-08T00:53:20;6.70;;;6.20;;
545;SDS011;259;53.304;9.816;2023-09-08T00:55:46;6.57;;;6.07;;
545;SDS011;259;53.304;9.816;2023-09-08T00:58:13;6.90;;;6.50;;
545;SDS011;259;53.304;9.816;2023-09-08T01:00:39;6.30;;;5.90;;
545;SDS011;259;53.304;9.816;2023-09-08T01:03:05;7.30;;;6.80;;
545;SDS011;259;53.304;9.816;2023-09-08T01:05:30;6.03;;;5.63;;
545;SDS011;259;53.304;9.816;2023-09-08T01:07:57;6.53;;;6.03;;
545;SDS011;259;53.304;9.816;2023-09-08T01:10:25;6.60;;;6.20;;
545;SDS011;259;53.304;9.816;2023-09-08T01:12:50;6.53;;;6.07;;
545;SDS011;259;53.304;9.816;2023-09-08T01:15:16;6.20;;;5.80;;
545;SDS011;259;53.304;9.816;2023-09-08T01:17:42;6.43;;;6.03;;
545;SDS011;259;53.304;9.816;2023-09-08T01:20:13;6.47;;;5.97;;
545;SDS011;259;53.304;9.816;2023-09-08T01:25:50;6.33;;;5.83;;
545;SDS011;259;53.304;9.816;2023-09-08T01:28:21;7.03;;;6.63;;
545;SDS011;259;53.304;9.816;2023-09-08T01:30:48;6.90;;;6.50;;
545;SDS011;259;53.304;9.816;2023-09-08T01:33:15;6.37;;;5.93;;
545;SDS011;259;53.304;9.816;2023-09-08T01:35:42;6.53;;;6.03;;
545;SDS011;259;53.304;9.816;2023-09-08T01:38:08;6.10;;;5.70;;
545;SDS011;259;53.304;9.816;2023-09-08T01:40:34;6.23;;;5.80;;
545;SDS011;259;53.304;9.816;2023-09-08T01:43:00;7.20;;;6.70;;
545;SDS011;259;53.304;9.816;2023-09-08T01:45:26;6.70;;;6.20;;
545;SDS011;259;53.304;9.816;2023-09-08T01:47:51;6.20;;;5.70;;
545;SDS011;259;53.304;9.816;2023-09-08T01:50:17;6.90;;;6.40;;
545;SDS011;259;53.304;9.816;2023-09-08T01:52:47;6.73;;;6.23;;
545;SDS011;259;53.304;9.816;2023-09-08T01:55:13;6.80;;;6.30;;
545;SDS011;259;53.304;9.816;2023-09-08T01:57:41;6.90;;;6.40;;
545;SDS011;259;53.304;9.816;2023-09-08T02:00:07;7.20;;;6.70;;
545;SDS011;259;53.304;9.816;2023-09-08T02:02:34;7.00;;;6.50;;
545;SDS011;259;53.304;9.816;2023-09-08T02:05:00;6.50;;;6.00;;
545;SDS011;259;53.304;9.816;2023-09-08T02:07:25;7.30;;;6.70;;
545;SDS011;259;53.304;9.816;2023-09-08T02:09:51;6.93;;;6.43;;
545;SDS011;259;53.304;9.816;2023-09-08T02:12:17;7.03;;;6.53;;
545;SDS011;259;53.304;9.816;2023-09-08T02:14:42;6.80;;;6.40;;
545;SDS011;259;53.304;9.816;2023-09-08T02:17:08;6.23;;;5.83;;
545;SDS011;259;53.304;9.816;2023-09-08T02:19:34;6.50;;;6.00;;
545;SDS011;259;53.304;9.816;2023-09-08T02:22:00;8.07;;;7.37;;
545;SDS011;259;53.304;9.816;2023-09-08T02:24:26;7.37;;;6.87;;
545;SDS011;259;53.304;9.816;2023-09-08T02:26:52;6.63;;;6.23;;
545;SDS011;259;53.304;9.816;2023-09-08T02:29:19;7.47;;;6.97;;
545;SDS011;259;53.304;9.816;2023-09-08T02:31:45;7.00;;;6.40;;
545;SDS011;259;53.304;9.816;2023-09-08T02:34:10;6.57;;;6.10;;
545;SDS011;259;53.304;9.816;2023-09-08T02:36:37;7.70;;;7.20;;
545;SDS011;259;53.304;9.816;2023-09-08T02:39:03;6.53;;;6.13;;
545;SDS011;259;53.304;9.816;2023-09-08T02:41:29;7.07;;;6.57;;
545;SDS011;259;53.304;9.816;2023-09-08T02:43:55;6.80;;;6.40;;
545;SDS011;259;53.304;9.816;2023-09-08T02:46:21;6.90;;;6.30;;
545;SDS011;259;53.304;9.816;2023-09-08T02:48:47;6.90;;;6.40;;
545;SDS011;259;53.304;9.816;2023-09-08T02:51:13;6.83;;;6.33;;
545;SDS011;259;53.304;9.816;2023-09-08T02:53:38;7.00;;;6.30;;
545;SDS011;259;53.304;9.816;2023-09-08T02:56:04;7.50;;;7.00;;
545;SDS011;259;53.304;9.816;2023-09-08T02:58:34;7.43;;;6.93;;
545;SDS011;259;53.304;9.816;2023-09-08T03:01:10;7.33;;;6.80;;
545;SDS011;259;53.304;9.816;2023-09-08T03:03:43;6.57;;;6.17;;
545;SDS011;259;53.304;9.816;2023-09-08T03:06:09;6.73;;;6.33;;
545;SDS011;259;53.304;9.816;2023-09-08T03:08:35;7.10;;;6.60;;
545;SDS011;259;53.304;9.816;2023-09-08T03:11:02;8.10;;;7.50;;
545;SDS011;259;53.304;9.816;2023-09-08T03:13:29;7.47;;;6.97;;
545;SDS011;259;53.304;9.816;2023-09-08T03:15:55;6.80;;;6.30;;
545;SDS011;259;53.304;9.816;2023-09-08T03:18:22;7.17;;;6.67;;
545;SDS011;259;53.304;9.816;2023-09-08T03:20:51;7.33;;;6.83;;
545;SDS011;259;53.304;9.816;2023-09-08T03:23:17;6.73;;;6.20;;
545;SDS011;259;53.304;9.816;2023-09-08T03:25:43;6.50;;;6.10;;
545;SDS011;259;53.304;9.816;2023-09-08T03:28:08;6.87;;;6.40;;
545;SDS011;259;53.304;9.816;2023-09-08T03:30:34;6.73;;;6.30;;
545;SDS011;259;53.304;9.816;2023-09-08T03:33:00;7.23;;;6.63;;
545;SDS011;259;53.304;9.816;2023-09-08T03:35:26;7.07;;;6.57;;
545;SDS011;259;53.304;9.816;2023-09-08T03:37:51;7.17;;;6.63;;
545;SDS011;259;53.304;9.816;2023-09-08T03:40:17;7.47;;;6.87;;
545;SDS011;259;53.304;9.816;2023-09-08T03:42:43;7.40;;;6.90;;
545;SDS011;259;53.304;9.816;2023-09-08T03:45:08;6.57;;;6.17;;
545;SDS011;259;53.304;9.816;2023-09-08T03:47:34;7.40;;;6.90;;
545;SDS011;259;53.304;9.816;2023-09-08T03:50:00;6.90;;;6.40;;
545;SDS011;259;53.304;9.816;2023-09-08T03:52:26;6.83;;;6.43;;
545;SDS011;259;53.304;9.816;2023-09-08T03:54:52;7.43;;;6.93;;
545;SDS011;259;53.304;9.816;2023-09-08T03:57:17;7.63;;;7.00;;
545;SDS011;259;53.304;9.816;2023-09-08T03:59:43;7.60;;;7.00;;
545;SDS011;259;53.304;9.816;2023-09-08T04:02:09;7.27;;;6.70;;
545;SDS011;259;53.304;9.816;2023-09-08T04:04:34;6.90;;;6.47;;
545;SDS011;259;53.304;9.816;2023-09-08T04:07:00;7.47;;;6.97;;
545;SDS011;259;53.304;9.816;2023-09-08T04:09:26;7.23;;;6.77;;
545;SDS011;259;53.304;9.816;2023-09-08T04:11:53;7.60;;;6.90;;
545;SDS011;259;53.304;9.816;2023-09-08T04:14:20;6.97;;;6.47;;
545;SDS011;259;53.304;9.816;2023-09-08T04:16:48;7.63;;;7.13;;
545;SDS011;259;53.304;9.816;2023-09-08T04:19:14;7.37;;;6.70;;
545;SDS011;259;53.304;9.816;2023-09-08T04:21:40;7.07;;;6.67;;
545;SDS011;259;53.304;9.816;2023-09-08T04:24:06;7.30;;;6.80;;
545;SDS011;259;53.304;9.816;2023-09-08T04:26:32;6.77;;;6.27;;
545;SDS011;259;53.304;9.816;2023-09-08T04:28:57;7.77;;;7.17;;
545;SDS011;259;53.304;9.816;2023-09-08T04:31:23;7.50;;;7.00;;
545;SDS011;259;53.304;9.816;2023-09-08T04:33:49;7.30;;;6.80;;
545;SDS011;259;53.304;9.816;2023-09-08T04:36:14;8.27;;;7.67;;
545;SDS011;259;53.304;9.816;2023-09-08T04:38:40;6.97;;;6.47;;
545;SDS011;259;53.304;9.816;2023-09-08T04:41:06;7.17;;;6.57;;
545;SDS011;259;53.304;9.816;2023-09-08T04:43:32;7.73;;;7.13;;
545;SDS011;259;53.304;9.816;2023-09-08T04:45:58;7.43;;;6.93;;
545;SDS011;259;53.304;9.816;2023-09-08T04:48:23;7.50;;;7.00;;
545;SDS011;259;53.304;9.816;2023-09-08T04:50:49;7.40;;;6.90;;
545;SDS011;259;53.304;9.816;2023-09-08T04:53:16;7.40;;;6.90;;
545;SDS011;259;53.304;9.816;2023-09-08T04:55:42;8.03;;;7.47;;
545;SDS011;259;53.304;9.816;2023-09-08T04:58:08;6.93;;;6.43;;
545;SDS011;259;53.304;9.816;2023-09-08T05:00:34;7.57;;;7.07;;
545;SDS011;259;53.304;9.816;2023-09-08T05:03:00;8.50;;;7.90;;
545;SDS011;259;53.304;9.816;2023-09-08T05:05:25;7.93;;;7.43;;
545;SDS011;259;53.304;9.816;2023-09-08T05:07:51;6.70;;;6.20;;
545;SDS011;259;53.304;9.816;2023-09-08T05:10:21;7.70;;;7.10;;
545;SDS011;259;53.304;9.816;2023-09-08T05:12:47;7.70;;;7.10;;
545;SDS011;259;53.304;9.816;2023-09-08T05:15:14;7.93;;;7.43;;
545;SDS011;259;53.304;9.816;2023-09-08T05:17:41;7.70;;;7.20;;
545;SDS011;259;53.304;9.816;2023-09-08T05:20:08;7.20;;;6.70;;
545;SDS011;259;53.304;9.816;2023-09-08T05:22:34;7.90;;;7.30;;
545;SDS011;259;53.304;9.816;2023-09-08T05:25:01;7.23;;;6.83;;
545;SDS011;259;53.304;9.816;2023-09-08T05:27:27;8.80;;;8.20;;
545;SDS011;259;53.304;9.816;2023-09-08T05:29:53;7.17;;;6.67;;
545;SDS011;259;53.304;9.816;2023-09-08T05:32:19;7.63;;;7.03;;
545;SDS011;259;53.304;9.816;2023-09-08T05:34:45;7.40;;;6.90;;
545;SDS011;259;53.304;9.816;2023-09-08T05:37:11;7.30;;;6.80;;
545;SDS011;259;53.304;9.816;2023-09-08T05:39:36;7.77;;;7.07;;
545;SDS011;259;53.304;9.816;2023-09-08T05:42:02;7.20;;;6.70;;
545;SDS011;259;53.304;9.816;2023-09-08T05:44:28;8.07;;;7.37;;
545;SDS011;259;53.304;9.816;2023-09-08T05:46:54;7.90;;;7.30;;
545;SDS011;259;53.304;9.816;2023-09-08T05:49:19;6.90;;;6.50;;
545;SDS011;259;53.304;9.816;2023-09-08T05:51:46;8.13;;;7.53;;
545;SDS011;259;53.304;9.816;2023-09-08T05:54:11;7.97;;;7.37;;
545;SDS011;259;53.304;9.816;2023-09-08T05:56:37;7.83;;;7.20;;
545;SDS011;259;53.304;9.816;2023-09-08T05:59:03;7.80;;;7.20;;
545;SDS011;259;53.304;9.816;2023-09-08T06:01:30;7.80;;;7.20;;
545;SDS011;259;53.304;9.816;2023-09-08T06:03:56;9.27;;;7.33;;
545;SDS011;259;53.304;9.816;2023-09-08T06:06:22;7.23;;;6.77;;
545;SDS011;259;53.304;9.816;2023-09-08T06:08:48;7.73;;;7.23;;
545;SDS011;259;53.304;9.816;2023-09-08T06:11:14;7.57;;;7.03;;
545;SDS011;259;53.304;9.816;2023-09-08T06:13:39;7.27;;;6.77;;
545;SDS011;259;53.304;9.816;2023-09-08T06:16:05;8.17;;;7.57;;
545;SDS011;259;53.304;9.816;2023-09-08T06:18:31;8.10;;;7.50;;
545;SDS011;259;53.304;9.816;2023-09-08T06:20:57;6.60;;;6.20;;
545;SDS011;259;53.304;9.816;2023-09-08T06:23:23;7.03;;;6.63;;
545;SDS011;259;53.304;9.816;2023-09-08T06:25:49;7.83;;;7.33;;
545;SDS011;259;53.304;9.816;2023-09-08T06:28:15;8.40;;;7.80;;
545;SDS011;259;53.304;9.816;2023-09-08T06:30:40;7.60;;;7.10;;
545;SDS011;259;53.304;9.816;2023-09-08T06:33:09;7.90;;;7.40;;
545;SDS011;259;53.304;9.816;2023-09-08T06:35:35;8.03;;;7.53;;
545;SDS011;259;53.304;9.816;2023-09-08T06:38:01;8.20;;;7.60;;
545;SDS011;259;53.304;9.816;2023-09-08T06:40:28;8.03;;;7.43;;
545;SDS011;259;53.304;9.816;2023-09-08T06:42:55;8.10;;;7.50;;
545;SDS011;259;53.304;9.816;2023-09-08T06:45:21;8.10;;;7.50;;
545;SDS011;259;53.304;9.816;2023-09-08T06:47:47;7.07;;;6.60;;
545;SDS011;259;53.304;9.816;2023-09-08T06:50:15;7.73;;;7.27;;
545;SDS011;259;53.304;9.816;2023-09-08T06:52:40;8.30;;;7.60;;
545;SDS011;259;53.304;9.816;2023-09-08T06:55:06;7.23;;;6.73;;
545;SDS011;259;53.304;9.816;2023-09-08T06:57:32;8.20;;;7.60;;
545;SDS011;259;53.304;9.816;2023-09-08T06:59:58;7.60;;;7.10;;
545;SDS011;259;53.304;9.816;2023-09-08T07:02:24;7.50;;;7.00;;
545;SDS011;259;53.304;9.816;2023-09-08T07:04:49;8.13;;;7.43;;
545;SDS011;259;53.304;9.816;2023-09-08T07:07:16;7.37;;;6.87;;
545;SDS011;259;53.304;9.816;2023-09-08T07:09:43;8.30;;;7.60;;
545;SDS011;259;53.304;9.816;2023-09-08T07:12:08;7.30;;;6.70;;
545;SDS011;259;53.304;9.816;2023-09-08T07:14:34;7.27;;;6.77;;
545;SDS011;259;53.304;9.816;2023-09-08T07:17:00;7.63;;;7.03;;
545;SDS011;259;53.304;9.816;2023-09-08T07:19:26;8.00;;;7.30;;
545;SDS011;259;53.304;9.816;2023-09-08T07:21:52;7.93;;;7.43;;
545;SDS011;259;53.304;9.816;2023-09-08T07:24:18;7.27;;;6.67;;
545;SDS011;259;53.304;9.816;2023-09-08T07:26:43;8.60;;;8.00;;
545;SDS011;259;53.304;9.816;2023-09-08T07:29:09;7.70;;;7.00;;
545;SDS011;259;53.304;9.816;2023-09-08T07:31:35;7.73;;;7.23;;
545;SDS011;259;53.304;9.816;2023-09-08T07:34:01;8.20;;;7.60;;
545;SDS011;259;53.304;9.816;2023-09-08T07:36:26;8.00;;;7.40;;
545;SDS011;259;53.304;9.816;2023-09-08T07:38:52;7.70;;;7.00;;
545;SDS011;259;53.304;9.816;2023-09-08T07:41:18;7.90;;;7.30;;
545;SDS011;259;53.304;9.816;2023-09-08T07:43:43;8.00;;;7.40;;
545;SDS011;259;53.304;9.816;2023-09-08T07:46:10;7.50;;;7.00;;
545;SDS011;259;53.304;9.816;2023-09-08T07:48:36;6.67;;;6.20;;
545;SDS011;259;53.304;9.816;2023-09-08T07:51:02;7.57;;;7.07;;
545;SDS011;259;53.304;9.816;2023-09-08T07:53:28;7.90;;;7.27;;
545;SDS011;259;53.304;9.816;2023-09-08T07:55:53;7.90;;;7.40;;
545;SDS011;259;53.304;9.816;2023-09-08T07:58:19;8.73;;;8.03;;
545;SDS011;259;53.304;9.816;2023-09-08T08:00:47;8.73;;;8.13;;
545;SDS011;259;53.304;9.816;2023-09-08T08:03:12;8.43;;;7.73;;
545;SDS011;259;53.304;9.816;2023-09-08T08:05:38;8.27;;;7.57;;
545;SDS011;259;53.304;9.816;2023-09-08T08:08:04;7.60;;;7.10;;
545;SDS011;259;53.304;9.816;2023-09-08T08:10:30;7.73;;;7.23;;
545;SDS011;259;53.304;9.816;2023-09-08T08:12:56;8.40;;;7.80;;
545;SDS011;259;53.304;9.816;2023-09-08T08:15:22;7.67;;;7.17;;
545;SDS011;259;53.304;9.816;2023-09-08T08:17:52;7.63;;;7.03;;
545;SDS011;259;53.304;9.816;2023-09-08T08:20:17;8.17;;;7.57;;
545;SDS011;259;53.304;9.816;2023-09-08T08:22:44;7.93;;;7.13;;
545;SDS011;259;53.304;9.816;2023-09-08T08:25:11;8.23;;;7.53;;
545;SDS011;259;53.304;9.816;2023-09-08T08:27:40;8.00;;;7.40;;
545;SDS011;259;53.304;9.816;2023-09-08T08:30:06;7.80;;;7.20;;
545;SDS011;259;53.304;9.816;2023-09-08T08:32:33;7.70;;;7.20;;
545;SDS011;259;53.304;9.816;2023-09-08T08:34:59;7.63;;;7.03;;
545;SDS011;259;53.304;9.816;2023-09-08T08:37:25;8.23;;;7.73;;
545;SDS011;259;53.304;9.816;2023-09-08T08:39:51;7.83;;;7.23;;
545;SDS011;259;53.304;9.816;2023-09-08T08:42:17;7.70;;;7.20;;
545;SDS011;259;53.304;9.816;2023-09-08T08:44:47;7.83;;;7.23;;
545;SDS011;259;53.304;9.816;2023-09-08T08:47:13;7.37;;;6.87;;
545;SDS011;259;53.304;9.816;2023-09-08T08:49:39;8.23;;;7.63;;
545;SDS011;259;53.304;9.816;2023-09-08T08:52:11;7.93;;;7.43;;
545;SDS011;259;53.304;9.816;2023-09-08T08:54:38;7.50;;;7.03;;
545;SDS011;259;53.304;9.816;2023-09-08T08:57:05;7.10;;;6.60;;
545;SDS011;259;53.304;9.816;2023-09-08T08:59:32;8.43;;;7.83;;
545;SDS011;259;53.304;9.816;2023-09-08T09:02:00;7.67;;;7.07;;
545;SDS011;259;53.304;9.816;2023-09-08T09:04:28;8.40;;;7.80;;
545;SDS011;259;53.304;9.816;2023-09-08T09:06:54;7.90;;;7.30;;
545;SDS011;259;53.304;9.816;2023-09-08T09:09:21;8.20;;;7.70;;
545;SDS011;259;53.304;9.816;2023-09-08T09:11:47;7.00;;;6.50;;
545;SDS011;259;53.304;9.816;2023-09-08T09:14:14;7.23;;;6.73;;
545;SDS011;259;53.304;9.816;2023-09-08T09:16:42;8.87;;;8.17;;
545;SDS011;259;53.304;9.816;2023-09-08T09:19:09;7.93;;;7.43;;
545;SDS011;259;53.304;9.816;2023-09-08T09:21:50;8.27;;;7.67;;
545;SDS011;259;53.304;9.816;2023-09-08T09:27:14;7.37;;;6.87;;
545;SDS011;259;53.304;9.816;2023-09-08T09:29:43;7.10;;;6.70;;
545;SDS011;259;53.304;9.816;2023-09-08T09:32:12;8.73;;;8.03;;
545;SDS011;259;53.304;9.816;2023-09-08T09:34:52;8.63;;;8.03;;
545;SDS011;259;53.304;9.816;2023-09-08T09:37:18;8.33;;;7.63;;
545;SDS011;259;53.304;9.816;2023-09-08T09:39:51;9.33;;;8.60;;
545;SDS011;259;53.304;9.816;2023-09-08T09:42:19;7.27;;;6.77;;
545;SDS011;259;53.304;9.816;2023-09-08T09:44:49;8.47;;;7.77;;
545;SDS011;259;53.304;9.816;2023-09-08T09:47:16;8.47;;;7.90;;
545;SDS011;259;53.304;9.816;2023-09-08T09:49:43;8.10;;;7.60;;
545;SDS011;259;53.304;9.816;2023-09-08T09:52:13;8.50;;;7.80;;
545;SDS011;259;53.304;9.816;2023-09-08T09:54:47;7.67;;;7.17;;
545;SDS011;259;53.304;9.816;2023-09-08T09:57:16;8.40;;;7.70;;
545;SDS011;259;53.304;9.816;2023-09-08T09:59:45;8.00;;;7.40;;
545;SDS011;259;53.304;9.816;2023-09-08T10:02:13;8.03;;;7.53;;
545;SDS011;259;53.304;9.816;2023-09-08T10:04:40;8.00;;;7.40;;
545;SDS011;259;53.304;9.816;2023-09-08T10:07:06;9.13;;;8.43;;
545;SDS011;259;53.304;9.816;2023-09-08T10:09:34;8.90;;;8.20;;
545;SDS011;259;53.304;9.816;2023-09-08T10:12:03;8.37;;;7.80;;
545;SDS011;259;53.304;9.816;2023-09-08T10:14:31;7.13;;;6.53;;
545;SDS011;259;53.304;9.816;2023-09-08T10:17:01;9.23;;;8.50;;
545;SDS011;259;53.304;9.816;2023-09-08T10:19:28;8.90;;;8.20;;
545;SDS011;259;53.304;9.816;2023-09-08T10:22:00;7.83;;;7.33;;
545;SDS011;259;53.304;9.816;2023-09-08T10:24:28;9.17;;;8.33;;
545;SDS011;259;53.304;9.816;2023-09-08T10:27:17;8.80;;;8.20;;
545;SDS011;259;53.304;9.816;2023-09-08T10:29:46;9.03;;;8.20;;
545;SDS011;259;53.304;9.816;2023-09-08T10:32:12;8.90;;;8.20;;
545;SDS011;259;53.304;9.816;2023-09-08T10:34:38;8.70;;;8.10;;
545;SDS011;259;53.304;9.816;2023-09-08T10:37:24;8.67;;;7.93;;
545;SDS011;259;53.304;9.816;2023-09-08T10:39:54;7.50;;;7.00;;
545;SDS011;259;53.304;9.816;2023-09-08T10:42:23;8.90;;;8.20;;
545;SDS011;259;53.304;9.816;2023-09-08T10:44:58;9.13;;;8.33;;
545;SDS011;259;53.304;9.816;2023-09-08T10:47:54;9.60;;;8.90;;
545;SDS011;259;53.304;9.816;2023-09-08T10:50:32;8.20;;;7.60;;
545;SDS011;259;53.304;9.816;2023-09-08T10:55:47;8.20;;;7.60;;
545;SDS011;259;53.304;9.816;2023-09-08T10:58:19;8.10;;;7.50;;
545;SDS011;259;53.304;9.816;2023-09-08T11:01:03;8.00;;;7.50;;
545;SDS011;259;53.304;9.816;2023-09-08T11:06:05;9.10;;;8.43;;
545;SDS011;259;53.304;9.816;2023-09-08T11:08:32;8.50;;;7.80;;
545;SDS011;259;53.304;9.816;2023-09-08T11:11:00;8.23;;;7.70;;
545;SDS011;259;53.304;9.816;2023-09-08T11:13:27;7.80;;;7.30;;
545;SDS011;259;53.304;9.816;2023-09-08T11:15:55;8.60;;;8.00;;
545;SDS011;259;53.304;9.816;2023-09-08T11:18:30;8.40;;;7.80;;
545;SDS011;259;53.304;9.816;2023-09-08T11:20:59;8.83;;;8.13;;
545;SDS011;259;53.304;9.816;2023-09-08T11:23:27;8.17;;;7.47;;
545;SDS011;259;53.304;9.816;2023-09-08T11:25:54;8.03;;;7.33;;
545;SDS011;259;53.304;9.816;2023-09-08T11:28:23;7.40;;;6.90;;
545;SDS011;259;53.304;9.816;2023-09-08T11:30:50;7.83;;;7.23;;
545;SDS011;259;53.304;9.816;2023-09-08T11:33:16;8.10;;;7.40;;
545;SDS011;259;53.304;9.816;2023-09-08T11:35:47;7.53;;;6.93;;
545;SDS011;259;53.304;9.816;2023-09-08T11:38:12;7.40;;;6.90;;
545;SDS011;259;53.304;9.816;2023-09-08T11:40:39;7.50;;;7.00;;
545;SDS011;259;53.304;9.816;2023-09-08T11:43:06;7.70;;;7.20;;
545;SDS011;259;53.304;9.816;2023-09-08T11:45:35;7.37;;;6.90;;
545;SDS011;259;53.304;9.816;2023-09-08T11:48:01;7.10;;;6.60;;
545;SDS011;259;53.304;9.816;2023-09-08T11:50:31;7.50;;;7.00;;
545;SDS011;259;53.304;9.816;2023-09-08T11:52:57;6.47;;;6.07;;
545;SDS011;259;53.304;9.816;2023-09-08T11:55:27;8.00;;;7.50;;
545;SDS011;259;53.304;9.816;2023-09-08T11:57:53;6.97;;;6.53;;
545;SDS011;259;53.304;9.816;2023-09-08T12:00:22;7.00;;;6.53;;
545;SDS011;259;53.304;9.816;2023-09-08T12:02:50;6.67;;;6.17;;
545;SDS011;259;53.304;9.816;2023-09-08T12:05:23;6.40;;;6.00;;
545;SDS011;259;53.304;9.816;2023-09-08T12:07:53;6.60;;;6.10;;
545;SDS011;259;53.304;9.816;2023-09-08T12:10:23;6.70;;;6.20;;
545;SDS011;259;53.304;9.816;2023-09-08T12:12:52;6.50;;;6.10;;
545;SDS011;259;53.304;9.816;2023-09-08T12:18:15;6.97;;;6.47;;
545;SDS011;259;53.304;9.816;2023-09-08T12:20:41;6.47;;;5.97;;
545;SDS011;259;53.304;9.816;2023-09-08T12:23:18;7.07;;;6.57;;
545;SDS011;259;53.304;9.816;2023-09-08T12:25:50;6.67;;;6.20;;
545;SDS011;259;53.304;9.816;2023-09-08T12:28:18;6.90;;;6.40;;
545;SDS011;259;53.304;9.816;2023-09-08T12:30:46;6.43;;;5.93;;
545;SDS011;259;53.304;9.816;2023-09-08T12:33:12;6.20;;;5.80;;
545;SDS011;259;53.304;9.816;2023-09-08T12:35:42;6.13;;;5.73;;
545;SDS011;259;53.304;9.816;2023-09-08T12:38:09;6.73;;;6.33;;
545;SDS011;259;53.304;9.816;2023-09-08T12:40:36;5.83;;;5.43;;
545;SDS011;259;53.304;9.816;2023-09-08T12:43:03;6.00;;;5.57;;
545;SDS011;259;53.304;9.816;2023-09-08T12:45:30;7.00;;;6.40;;
545;SDS011;259;53.304;9.816;2023-09-08T12:47:58;6.43;;;5.97;;
545;SDS011;259;53.304;9.816;2023-09-08T12:50:26;5.93;;;5.53;;
545;SDS011;259;53.304;9.816;2023-09-08T12:52:52;6.37;;;5.97;;
545;SDS011;259;53.304;9.816;2023-09-08T12:55:18;5.93;;;5.53;;
545;SDS011;259;53.304;9.816;2023-09-08T12:57:44;5.90;;;5.50;;
545;SDS011;259;53.304;9.816;2023-09-08T13:00:11;6.10;;;5.70;;
545;SDS011;259;53.304;9.816;2023-09-08T13:02:38;5.90;;;5.50;;
545;SDS011;259;53.304;9.816;2023-09-08T13:05:04;5.90;;;5.50;;
545;SDS011;259;53.304;9.816;2023-09-08T13:07:30;5.43;;;5.13;;
545;SDS011;259;53.304;9.816;2023-09-08T13:09:56;5.40;;;5.00;;
545;SDS011;259;53.304;9.816;2023-09-08T13:12:22;5.93;;;5.60;;
545;SDS011;259;53.304;9.816;2023-09-08T13:14:47;6.40;;;5.90;;
545;SDS011;259;53.304;9.816;2023-09-08T13:17:14;5.10;;;4.80;;
545;SDS011;259;53.304;9.816;2023-09-08T13:19:43;5.37;;;5.07;;
545;SDS011;259;53.304;9.816;2023-09-08T13:22:09;4.87;;;4.57;;
545;SDS011;259;53.304;9.816;2023-09-08T13:24:35;5.60;;;5.20;;
545;SDS011;259;53.304;9.816;2023-09-08T13:27:02;5.13;;;4.83;;
545;SDS011;259;53.304;9.816;2023-09-08T13:29:28;5.27;;;4.87;;
545;SDS011;259;53.304;9.816;2023-09-08T13:31:54;5.90;;;5.50;;
545;SDS011;259;53.304;9.816;2023-09-08T13:34:23;5.27;;;4.97;;
545;SDS011;259;53.304;9.816;2023-09-08T13:36:49;5.50;;;5.00;;
545;SDS011;259;53.304;9.816;2023-09-08T13:39:15;5.80;;;5.40;;
545;SDS011;259;53.304;9.816;2023-09-08T13:41:48;5.00;;;4.60;;
545;SDS011;259;53.304;9.816;2023-09-08T13:44:18;5.00;;;4.70;;
545;SDS011;259;53.304;9.816;2023-09-08T13:46:46;5.20;;;4.90;;
545;SDS011;259;53.304;9.816;2023-09-08T13:49:13;4.90;;;4.60;;
545;SDS011;259;53.304;9.816;2023-09-08T13:51:42;5.70;;;5.20;;
545;SDS011;259;53.304;9.816;2023-09-08T13:54:09;4.50;;;4.20;;
545;SDS011;259;53.304;9.816;2023-09-08T13:56:39;4.87;;;4.57;;
545;SDS011;259;53.304;9.816;2023-09-08T13:59:06;4.50;;;4.20;;
545;SDS011;259;53.304;9.816;2023-09-08T14:01:33;4.80;;;4.50;;
545;SDS011;259;53.304;9.816;2023-09-08T14:04:00;5.00;;;4.70;;
545;SDS011;259;53.304;9.816;2023-09-08T14:06:27;5.30;;;5.00;;
545;SDS011;259;53.304;9.816;2023-09-08T14:08:53;4.53;;;4.33;;
545;SDS011;259;53.304;9.816;2023-09-08T14:11:19;4.83;;;4.53;;
545;SDS011;259;53.304;9.816;2023-09-08T14:13:46;4.03;;;3.83;;
545;SDS011;259;53.304;9.816;2023-09-08T14:16:12;4.53;;;4.30;;
545;SDS011;259;53.304;9.816;2023-09-08T14:18:38;5.23;;;4.83;;
545;SDS011;259;53.304;9.816;2023-09-08T14:21:04;6.87;;;5.27;;
545;SDS011;259;53.304;9.816;2023-09-08T14:23:31;5.20;;;4.80;;
545;SDS011;259;53.304;9.816;2023-09-08T14:25:59;7.33;;;5.27;;
545;SDS011;259;53.304;9.816;2023-09-08T14:28:25;4.80;;;4.40;;
545;SDS011;259;53.304;9.816;2023-09-08T14:30:54;7.87;;;5.60;;
545;SDS011;259;53.304;9.816;2023-09-08T14:33:20;8.43;;;5.50;;
545;SDS011;259;53.304;9.816;2023-09-08T14:35:45;5.97;;;4.87;;
545;SDS011;259;53.304;9.816;2023-09-08T14:38:16;5.10;;;4.60;;
545;SDS011;259;53.304;9.816;2023-09-08T14:40:42;5.20;;;4.80;;
545;SDS011;259;53.304;9.816;2023-09-08T14:43:09;5.53;;;4.53;;
545;SDS011;259;53.304;9.816;2023-09-08T14:45:35;5.23;;;4.73;;
545;SDS011;259;53.304;9.816;2023-09-08T14:48:00;4.23;;;3.93;;
545;SDS011;259;53.304;9.816;2023-09-08T14:50:26;4.50;;;4.20;;
545;SDS011;259;53.304;9.816;2023-09-08T14:52:52;5.47;;;5.07;;
545;SDS011;259;53.304;9.816;2023-09-08T14:55:17;4.67;;;4.27;;
545;SDS011;259;53.304;9.816;2023-09-08T14:57:43;4.67;;;4.07;;
545;SDS011;259;53.304;9.816;2023-09-08T15:00:09;4.20;;;3.90;;
545;SDS011;259;53.304;9.816;2023-09-08T15:02:35;5.00;;;4.60;;
545;SDS011;259;53.304;9.816;2023-09-08T15:05:01;4.93;;;4.63;;
545;SDS011;259;53.304;9.816;2023-09-08T15:07:27;4.90;;;4.50;;
545;SDS011;259;53.304;9.816;2023-09-08T15:09:53;4.57;;;4.27;;
545;SDS011;259;53.304;9.816;2023-09-08T15:12:19;5.10;;;4.73;;
545;SDS011;259;53.304;9.816;2023-09-08T15:14:45;4.70;;;4.40;;
545;SDS011;259;53.304;9.816;2023-09-08T15:17:11;4.90;;;4.60;;
545;SDS011;259;53.304;9.816;2023-09-08T15:19:41;4.33;;;4.03;;
545;SDS011;259;53.304;9.816;2023-09-08T15:22:07;4.37;;;4.07;;
545;SDS011;259;53.304;9.816;2023-09-08T15:24:32;4.40;;;4.10;;
545;SDS011;259;53.304;9.816;2023-09-08T15:26:58;5.00;;;4.53;;
545;SDS011;259;53.304;9.816;2023-09-08T15:29:25;4.37;;;4.07;;
545;SDS011;259;53.304;9.816;2023-09-08T15:31:51;5.00;;;4.60;;
545;SDS011;259;53.304;9.816;2023-09-08T15:34:16;4.30;;;4.00;;
545;SDS011;259;53.304;9.816;2023-09-08T15:36:42;4.67;;;4.30;;
545;SDS011;259;53.304;9.816;2023-09-08T15:39:08;4.20;;;3.90;;
545;SDS011;259;53.304;9.816;2023-09-08T15:41:34;4.83;;;4.53;;
545;SDS011;259;53.304;9.816;2023-09-08T15:43:59;4.87;;;4.57;;
545;SDS011;259;53.304;9.816;2023-09-08T15:46:25;5.00;;;4.70;;
545;SDS011;259;53.304;9.816;2023-09-08T15:48:51;4.73;;;4.40;;
545;SDS011;259;53.304;9.816;2023-09-08T15:51:16;4.90;;;4.60;;
545;SDS011;259;53.304;9.816;2023-09-08T15:53:42;4.70;;;4.30;;
545;SDS011;259;53.304;9.816;2023-09-08T15:56:08;4.60;;;4.30;;
545;SDS011;259;53.304;9.816;2023-09-08T15:58:34;5.07;;;4.57;;
545;SDS011;259;53.304;9.816;2023-09-08T16:01:01;4.87;;;4.50;;